MMZC/ZCL METAR and TAF weather

Enter ICAO airport designator
Station Type Date Time Source
MMZC METAR 2022/11/26 08:40 UTC NOAA

MMZC 260840Z E00000KT 10SM SKC 11/01 A3023


Station Type Date Time Source
MMZC Decoded METAR 2022/11/26 08:40 UTC NOAA

Zacatecas Airport, Mexico (MMZC) 22-54N 102-41W
Nov 26, 2022 - 03:40 AM EST / 2022.11.26 0840 UTC
Visibility: 10 mile(s):0
Sky conditions: clear
Temperature: 51 F (11 C)
Dew Point: 33 F (1 C)
Relative Humidity: 50%
Pressure (altimeter): 30.23 in. Hg (1023 hPa)
ob: MMZC 260840Z E00000KT 10SM SKC 11/01 A3023
cycle: 8

Station Type Date Time Source
MMZC TAF 2022/11/26 06:50 UTC NOAA

TAF MMZC 260437Z 2606/2712 18007KT P6SM SKC TX20/2620Z TN08/2612Z
FM261800 18018KT P6SM SCT030 BKN250
FM270600 18008KT P6SM SCT030

Example: see airport list